Time;durP1;ratioP1;P1;durP2;ratioP2;P2;SDS_P1;SDS_P2;PMS_P1;PMS_P2;Temp;Humidity;BMP_temperature;BMP_pressure;BME280_temperature;BME280_humidity;BME280_pressure;Samples;Min_cycle;Max_cycle;Signal;HPM_P1;HPM_P2
2023/05/24 00:01:24;;;;;;;0.90;0.80;;;12.70;99.90;;;;;;4961124;28;20234;-64
2023/05/24 00:03:52;;;;;;;1.60;0.88;;;12.70;99.90;;;;;;4956389;28;20294;-62
2023/05/24 00:06:22;;;;;;;1.25;0.90;;;12.70;99.90;;;;;;4953539;28;20242;-64
2023/05/24 00:08:50;;;;;;;0.60;0.50;;;12.70;99.90;;;;;;4951305;28;20215;-63
2023/05/24 00:11:18;;;;;;;0.70;0.55;;;12.70;99.90;;;;;;4951609;28;20234;-63
2023/05/24 00:13:46;;;;;;;0.80;0.63;;;12.80;99.90;;;;;;4954113;28;20215;-64
2023/05/24 00:16:14;;;;;;;1.20;1.10;;;12.80;99.90;;;;;;4965091;28;20206;-64
2023/05/24 00:18:45;;;;;;;0.80;0.57;;;12.80;99.90;;;;;;4965615;28;20735;-64
2023/05/24 00:21:14;;;;;;;0.95;0.85;;;12.70;99.90;;;;;;4962799;28;20223;-64
2023/05/24 00:23:44;;;;;;;0.85;0.60;;;12.70;99.90;;;;;;4961949;28;20210;-64
2023/05/24 00:26:12;;;;;;;0.60;0.40;;;12.70;99.90;;;;;;4964869;28;20633;-64
2023/05/24 00:28:40;;;;;;;0.70;0.60;;;12.70;99.90;;;;;;4965428;28;20207;-64
2023/05/24 00:31:08;;;;;;;0.60;0.50;;;12.70;99.90;;;;;;4963154;28;20602;-64
2023/05/24 00:33:36;;;;;;;1.63;0.90;;;12.60;99.90;;;;;;4961730;28;20208;-64
2023/05/24 00:36:04;;;;;;;0.85;0.85;;;12.50;99.90;;;;;;4963579;28;20258;-64
2023/05/24 00:38:32;;;;;;;0.65;0.60;;;12.40;99.90;;;;;;4965548;28;20689;-64
2023/05/24 00:41:01;;;;;;;0.60;0.60;;;12.30;99.90;;;;;;4957748;28;20242;-65
2023/05/24 00:43:29;;;;;;;0.82;0.65;;;12.30;99.90;;;;;;4964161;28;20678;-63
2023/05/24 00:46:15;;;;;;;1.02;0.93;;;12.20;99.90;;;;;;4964364;28;20250;-64
2023/05/24 00:48:45;;;;;;;0.65;0.55;;;12.20;99.90;;;;;;4962130;28;20207;-64
2023/05/24 00:51:14;;;;;;;0.80;0.77;;;12.20;99.90;;;;;;4964316;28;20728;-64
2023/05/24 00:53:44;;;;;;;0.60;0.55;;;12.20;99.90;;;;;;4966334;28;20236;-64
2023/05/24 00:56:15;;;;;;;2.13;1.33;;;12.30;99.90;;;;;;4964159;28;20215;-64
2023/05/24 00:58:44;;;;;;;0.65;0.60;;;12.30;99.90;;;;;;4965137;28;20293;-64
2023/05/24 01:01:13;;;;;;;0.68;0.60;;;12.20;99.90;;;;;;4961907;28;20238;-63
2023/05/24 01:03:41;;;;;;;0.60;0.40;;;12.10;99.90;;;;;;4957931;28;20261;-63
2023/05/24 01:06:12;;;;;;;1.17;0.88;;;11.90;99.90;;;;;;4953600;28;20231;-64
2023/05/24 01:08:48;;;;;;;0.80;0.80;;;11.80;99.90;;;;;;4960385;28;20199;-64
2023/05/24 01:11:30;;;;;;;0.70;0.70;;;11.80;99.90;;;;;;4956331;28;20225;-63
2023/05/24 01:14:08;;;;;;;1.27;1.02;;;11.60;99.90;;;;;;4962357;28;20211;-63
2023/05/24 01:16:45;;;;;;;0.68;0.50;;;11.60;99.90;;;;;;4956240;28;20216;-63
2023/05/24 01:19:49;;;;;;;0.98;0.88;;;11.50;99.90;;;;;;4961612;28;20257;-64
2023/05/24 01:22:44;;;;;;;0.70;0.60;;;11.40;99.90;;;;;;4949958;28;20326;-64
2023/05/24 01:25:19;;;;;;;0.60;0.60;;;11.40;99.90;;;;;;4952459;28;20263;-63
2023/05/24 01:27:50;;;;;;;2.65;0.85;;;11.50;99.90;;;;;;4952814;28;20218;-65
2023/05/24 01:30:18;;;;;;;0.70;0.70;;;11.40;99.90;;;;;;4948441;28;20214;-63
2023/05/24 01:32:46;;;;;;;0.85;0.57;;;11.40;99.90;;;;;;4951494;28;20203;-64
2023/05/24 01:35:14;;;;;;;0.70;0.50;;;11.40;99.90;;;;;;4951971;28;20286;-63
2023/05/24 01:37:42;;;;;;;1.25;0.70;;;11.40;99.90;;;;;;4945434;28;20211;-63
2023/05/24 01:40:11;;;;;;;0.70;0.60;;;11.50;99.90;;;;;;4950802;28;20214;-63
2023/05/24 01:42:45;;;;;;;0.70;0.60;;;11.60;99.90;;;;;;4951989;28;20298;-65
2023/05/24 01:45:22;;;;;;;1.08;0.80;;;11.60;99.90;;;;;;4952566;28;20214;-64
2023/05/24 01:48:00;;;;;;;0.60;0.50;;;11.50;99.90;;;;;;4963037;28;20231;-64
2023/05/24 01:50:32;;;;;;;0.70;0.70;;;11.60;99.90;;;;;;4955610;28;20304;-64
2023/05/24 01:53:06;;;;;;;2.55;0.60;;;11.50;99.90;;;;;;4966642;28;20659;-64
2023/05/24 01:55:37;;;;;;;0.70;0.70;;;11.30;99.90;;;;;;4956984;28;20206;-64
2023/05/24 01:58:06;;;;;;;0.80;0.70;;;11.40;99.90;;;;;;4961660;28;20218;-64
2023/05/24 02:00:36;;;;;;;0.80;0.70;;;11.40;99.90;;;;;;4952762;28;20243;-64
2023/05/24 02:03:04;;;;;;;1.00;0.63;;;11.40;99.90;;;;;;4950049;28;20207;-64
2023/05/24 02:05:32;;;;;;;0.80;0.60;;;11.20;99.90;;;;;;4950642;28;20258;-64
2023/05/24 02:08:00;;;;;;;0.60;0.50;;;11.10;99.90;;;;;;4948664;28;20581;-64
2023/05/24 02:10:28;;;;;;;0.70;0.50;;;11.00;99.90;;;;;;4949947;28;20633;-64
2023/05/24 02:12:56;;;;;;;0.70;0.60;;;10.80;99.90;;;;;;4958207;28;20203;-64
2023/05/24 02:15:25;;;;;;;1.15;0.90;;;10.70;99.90;;;;;;4948202;28;20222;-64
2023/05/24 02:17:54;;;;;;;0.80;0.70;;;10.70;99.90;;;;;;4949046;28;20258;-63
2023/05/24 02:20:22;;;;;;;0.85;0.80;;;10.80;99.90;;;;;;4945155;28;20306;-64
2023/05/24 02:22:50;;;;;;;4.15;1.25;;;10.90;99.90;;;;;;4951389;28;20210;-63
2023/05/24 02:25:18;;;;;;;1.70;0.75;;;10.90;99.90;;;;;;4946379;28;20221;-64
2023/05/24 02:27:46;;;;;;;1.17;0.70;;;10.90;99.90;;;;;;4951492;28;20606;-63
2023/05/24 02:30:14;;;;;;;0.80;0.70;;;10.90;99.90;;;;;;4950261;28;20286;-62
2023/05/24 02:32:42;;;;;;;0.60;0.55;;;10.70;99.90;;;;;;4950740;28;20207;-63
2023/05/24 02:35:11;;;;;;;0.90;0.60;;;10.90;99.90;;;;;;4951203;28;20207;-63
2023/05/24 02:37:39;;;;;;;0.88;0.70;;;10.90;99.90;;;;;;4950869;28;20207;-63
2023/05/24 02:40:08;;;;;;;0.82;0.82;;;10.80;99.90;;;;;;4950841;28;20869;-64
2023/05/24 02:42:36;;;;;;;0.63;0.55;;;10.90;99.90;;;;;;4949055;28;20703;-63
2023/05/24 02:45:05;;;;;;;1.00;0.85;;;11.00;99.90;;;;;;4948602;28;20568;-64
2023/05/24 02:47:33;;;;;;;1.80;0.60;;;11.10;99.90;;;;;;5079402;23;21431;-71
2023/05/24 02:50:01;;;;;;;1.23;0.60;;;11.10;99.90;;;;;;4956468;28;20208;-70
2023/05/24 02:52:30;;;;;;;1.52;0.70;;;11.00;99.90;;;;;;4957631;28;20203;-70
2023/05/24 02:54:58;;;;;;;1.65;1.00;;;11.00;99.90;;;;;;4951597;28;20207;-70
2023/05/24 02:57:27;;;;;;;1.45;0.70;;;11.00;99.90;;;;;;4953309;28;20562;-70
2023/05/24 02:59:55;;;;;;;1.15;0.82;;;11.10;99.90;;;;;;4952012;28;20674;-70
2023/05/24 03:02:24;;;;;;;0.70;0.50;;;11.00;99.90;;;;;;4952515;28;20209;-69
2023/05/24 03:04:52;;;;;;;2.90;0.80;;;10.80;99.90;;;;;;4952095;28;20274;-70
2023/05/24 03:07:20;;;;;;;1.10;0.70;;;10.70;99.90;;;;;;4947441;28;20223;-70
2023/05/24 03:09:50;;;;;;;1.00;0.70;;;10.60;99.90;;;;;;4952385;29;20215;-71
2023/05/24 03:12:17;;;;;;;1.00;0.90;;;10.60;99.90;;;;;;4951993;29;20717;-70
2023/05/24 03:14:45;;;;;;;0.60;0.40;;;10.60;99.90;;;;;;4951589;28;20211;-71
2023/05/24 03:17:13;;;;;;;0.60;0.50;;;10.50;99.90;;;;;;4941516;28;20219;-71
2023/05/24 03:19:41;;;;;;;0.70;0.60;;;10.50;99.90;;;;;;4950050;28;20218;-71
2023/05/24 03:22:09;;;;;;;1.60;0.60;;;10.30;99.90;;;;;;4952189;29;20221;-71
2023/05/24 03:24:38;;;;;;;0.60;0.43;;;10.20;99.90;;;;;;4951243;28;20208;-71
2023/05/24 03:27:08;;;;;;;0.85;0.75;;;10.20;99.90;;;;;;4950518;29;20216;-71
2023/05/24 03:29:36;;;;;;;0.60;0.60;;;10.20;99.90;;;;;;4951142;28;20212;-71
2023/05/24 03:32:04;;;;;;;0.80;0.70;;;10.20;99.90;;;;;;4951734;28;20216;-71
2023/05/24 03:34:32;;;;;;;0.60;0.50;;;10.20;99.90;;;;;;4953465;28;20203;-71
2023/05/24 03:37:00;;;;;;;1.73;0.88;;;10.40;99.90;;;;;;4955291;28;20212;-71
2023/05/24 03:39:28;;;;;;;0.75;0.68;;;10.60;99.90;;;;;;4954825;28;20262;-70
2023/05/24 03:41:56;;;;;;;0.60;0.50;;;10.60;99.90;;;;;;4954434;28;20230;-70
2023/05/24 03:44:26;;;;;;;0.60;0.50;;;10.50;99.90;;;;;;4953699;28;20207;-70
2023/05/24 03:46:54;;;;;;;0.80;0.50;;;10.50;99.90;;;;;;4955659;28;20226;-70
2023/05/24 03:49:22;;;;;;;1.10;1.00;;;10.60;99.90;;;;;;4952712;28;20235;-70
2023/05/24 03:51:50;;;;;;;1.20;0.80;;;10.60;99.90;;;;;;4955340;28;20705;-71
2023/05/24 03:54:18;;;;;;;0.70;0.55;;;10.60;99.90;;;;;;4954456;28;20564;-69
2023/05/24 03:56:45;;;;;;;0.63;0.50;;;10.60;99.90;;;;;;4955250;28;20203;-68
2023/05/24 03:59:13;;;;;;;0.90;0.60;;;10.80;99.90;;;;;;4953881;28;20240;-69
2023/05/24 04:01:43;;;;;;;0.80;0.75;;;10.80;99.90;;;;;;4955026;28;20207;-69
2023/05/24 04:04:11;;;;;;;2.70;0.68;;;10.90;99.90;;;;;;4954290;28;20215;-69
2023/05/24 04:06:40;;;;;;;2.40;0.60;;;11.00;99.90;;;;;;4954230;28;20211;-70
2023/05/24 04:09:08;;;;;;;0.70;0.60;;;10.90;99.90;;;;;;4954195;28;20231;-68
2023/05/24 04:11:37;;;;;;;0.70;0.52;;;11.00;99.90;;;;;;4952814;28;20195;-70
2023/05/24 04:14:05;;;;;;;2.90;0.80;;;11.00;99.90;;;;;;4953546;28;20569;-71
2023/05/24 04:16:33;;;;;;;1.40;0.50;;;11.10;99.90;;;;;;4953245;28;20212;-71
2023/05/24 04:19:03;;;;;;;0.90;0.70;;;11.10;99.90;;;;;;4945602;29;20234;-71
2023/05/24 04:21:32;;;;;;;1.05;0.90;;;11.20;99.90;;;;;;4950282;28;20211;-71
2023/05/24 04:24:00;;;;;;;0.80;0.60;;;11.20;99.90;;;;;;4951070;28;20222;-70
2023/05/24 04:26:28;;;;;;;0.60;0.60;;;11.30;99.90;;;;;;4953340;28;20215;-71
2023/05/24 04:28:57;;;;;;;0.60;0.50;;;11.30;99.90;;;;;;4952653;28;20647;-70
2023/05/24 04:31:28;;;;;;;1.05;0.60;;;11.30;99.90;;;;;;4952889;28;20238;-70
2023/05/24 04:33:57;;;;;;;2.80;1.00;;;11.30;99.90;;;;;;4953616;28;20211;-71
2023/05/24 04:36:27;;;;;;;0.88;0.50;;;11.20;99.90;;;;;;4952818;28;20235;-71
2023/05/24 04:39:01;;;;;;;0.60;0.50;;;11.10;99.90;;;;;;4951827;28;20266;-71
2023/05/24 04:41:31;;;;;;;1.40;0.75;;;11.10;99.90;;;;;;4950080;28;20291;-71
2023/05/24 04:43:59;;;;;;;0.80;0.70;;;11.10;99.90;;;;;;4952947;28;20246;-70
2023/05/24 04:46:27;;;;;;;0.70;0.50;;;11.20;99.90;;;;;;4951082;28;20217;-71
2023/05/24 04:48:55;;;;;;;0.60;0.50;;;11.20;99.90;;;;;;4949323;28;20238;-71
2023/05/24 04:51:23;;;;;;;0.60;0.40;;;11.20;99.90;;;;;;4953998;28;20211;-71
2023/05/24 04:53:53;;;;;;;0.85;0.50;;;11.20;99.90;;;;;;4953447;28;20623;-71
2023/05/24 04:56:21;;;;;;;0.70;0.63;;;10.80;99.90;;;;;;4948419;28;20206;-71
2023/05/24 04:58:49;;;;;;;0.93;0.70;;;10.80;99.90;;;;;;4953147;28;20231;-71
2023/05/24 05:01:17;;;;;;;0.90;0.50;;;10.90;99.90;;;;;;4953331;28;20216;-71
2023/05/24 05:03:45;;;;;;;0.60;0.50;;;11.00;99.90;;;;;;4949312;28;20207;-71
2023/05/24 05:06:14;;;;;;;0.60;0.50;;;11.00;99.90;;;;;;4952552;28;20203;-71
2023/05/24 05:08:42;;;;;;;0.68;0.50;;;10.90;99.90;;;;;;4934955;28;21745;-71
2023/05/24 05:11:11;;;;;;;0.60;0.50;;;11.00;99.90;;;;;;4953367;28;20215;-71
2023/05/24 05:13:39;;;;;;;0.70;0.55;;;11.20;99.90;;;;;;4948219;28;20694;-72
2023/05/24 05:16:08;;;;;;;0.60;0.60;;;11.20;99.90;;;;;;4949740;28;20211;-71
2023/05/24 05:18:36;;;;;;;1.75;0.70;;;11.30;99.90;;;;;;4944847;28;20250;-71
2023/05/24 05:21:04;;;;;;;0.80;0.50;;;11.30;99.90;;;;;;4952831;28;20211;-72
2023/05/24 05:23:32;;;;;;;1.85;0.95;;;11.30;99.90;;;;;;4953133;29;20211;-71
2023/05/24 05:26:00;;;;;;;0.60;0.40;;;11.40;99.90;;;;;;4952286;28;20266;-70
2023/05/24 05:28:29;;;;;;;1.70;0.70;;;11.30;99.90;;;;;;4953332;28;20412;-71
2023/05/24 05:30:57;;;;;;;0.60;0.50;;;11.10;99.90;;;;;;4944836;28;20665;-71
2023/05/24 05:33:25;;;;;;;0.77;0.40;;;10.80;99.90;;;;;;4951813;28;20219;-71
2023/05/24 05:35:53;;;;;;;1.00;0.80;;;10.80;99.90;;;;;;4951186;28;20294;-72
2023/05/24 05:38:21;;;;;;;1.40;0.93;;;10.80;99.90;;;;;;4950265;28;20314;-71
2023/05/24 05:40:49;;;;;;;0.80;0.50;;;10.70;99.90;;;;;;4945927;28;20266;-71
2023/05/24 05:43:17;;;;;;;0.63;0.47;;;11.00;99.90;;;;;;4950258;28;20258;-71
2023/05/24 05:45:47;;;;;;;0.80;0.50;;;11.00;99.90;;;;;;4949521;28;20231;-71
2023/05/24 05:48:15;;;;;;;0.70;0.50;;;11.00;99.90;;;;;;4945918;28;20266;-71
2023/05/24 05:50:43;;;;;;;0.70;0.60;;;10.90;99.90;;;;;;4953324;29;20215;-71
2023/05/24 05:53:11;;;;;;;0.77;0.57;;;10.90;99.90;;;;;;4952911;29;20207;-70
2023/05/24 05:55:39;;;;;;;0.80;0.45;;;10.90;99.90;;;;;;4953051;29;20211;-71
2023/05/24 05:58:07;;;;;;;1.10;0.80;;;10.90;99.90;;;;;;4952688;28;20714;-70
2023/05/24 06:00:35;;;;;;;0.95;0.60;;;11.00;99.90;;;;;;4953137;29;20207;-71
2023/05/24 06:03:04;;;;;;;1.02;0.70;;;11.10;99.90;;;;;;4952243;29;20227;-72
2023/05/24 06:05:32;;;;;;;1.48;0.70;;;11.10;99.90;;;;;;4952580;29;20222;-72
2023/05/24 06:08:00;;;;;;;1.25;0.70;;;11.10;99.90;;;;;;4952856;29;20239;-72
2023/05/24 06:10:28;;;;;;;0.60;0.50;;;11.30;99.90;;;;;;4948519;29;20223;-71
2023/05/24 06:12:56;;;;;;;1.02;0.50;;;11.20;99.90;;;;;;4951853;28;20246;-73
2023/05/24 06:15:24;;;;;;;1.10;0.50;;;11.30;99.90;;;;;;4952561;29;20211;-72
2023/05/24 06:17:53;;;;;;;1.50;0.55;;;11.30;99.90;;;;;;4953175;29;20708;-73
2023/05/24 06:20:23;;;;;;;0.70;0.60;;;11.50;99.90;;;;;;4953069;29;20199;-73
2023/05/24 06:22:51;;;;;;;0.63;0.47;;;11.60;99.90;;;;;;4952329;29;20222;-73
2023/05/24 06:25:19;;;;;;;0.70;0.60;;;11.60;99.90;;;;;;4952138;29;20747;-72
2023/05/24 06:27:47;;;;;;;0.82;0.50;;;11.80;99.90;;;;;;4952703;28;20718;-73
2023/05/24 06:30:15;;;;;;;0.90;0.70;;;11.80;99.90;;;;;;4952492;29;20227;-72
2023/05/24 06:32:43;;;;;;;1.17;0.75;;;11.80;99.90;;;;;;4952733;29;20647;-73
2023/05/24 06:35:11;;;;;;;0.60;0.50;;;11.70;99.90;;;;;;4952188;29;20215;-72
2023/05/24 06:37:41;;;;;;;1.02;0.60;;;11.70;99.90;;;;;;4952639;28;20231;-73
2023/05/24 06:40:09;;;;;;;1.08;0.82;;;11.80;99.90;;;;;;4952244;29;20207;-72
2023/05/24 06:42:39;;;;;;;2.50;0.80;;;11.80;99.90;;;;;;4952494;29;20207;-72
2023/05/24 06:45:08;;;;;;;0.80;0.50;;;12.00;99.90;;;;;;4952480;29;20207;-72
2023/05/24 06:47:36;;;;;;;0.95;0.88;;;12.00;99.90;;;;;;4946959;29;20268;-72
2023/05/24 06:50:05;;;;;;;0.70;0.60;;;12.00;99.90;;;;;;4950329;29;20222;-72
2023/05/24 06:52:33;;;;;;;1.00;0.75;;;12.10;99.90;;;;;;4952368;29;20293;-73
2023/05/24 06:55:03;;;;;;;0.70;0.50;;;12.10;99.90;;;;;;4952331;29;20208;-72
2023/05/24 06:57:31;;;;;;;1.33;0.90;;;12.20;99.90;;;;;;4952472;28;20229;-74
2023/05/24 06:59:59;;;;;;;1.25;0.73;;;12.20;99.90;;;;;;4952056;29;20646;-72
2023/05/24 07:02:27;;;;;;;2.85;1.17;;;12.20;99.90;;;;;;4952483;29;20226;-73
2023/05/24 07:04:55;;;;;;;1.25;0.70;;;12.20;99.90;;;;;;4952181;29;20218;-72
2023/05/24 07:07:23;;;;;;;1.67;0.85;;;12.20;99.90;;;;;;4952427;29;20234;-73
2023/05/24 07:09:51;;;;;;;0.60;0.40;;;12.40;99.90;;;;;;4954559;28;20282;-73
2023/05/24 07:12:22;;;;;;;0.80;0.60;;;12.60;99.90;;;;;;4956039;29;20225;-72
2023/05/24 07:14:50;;;;;;;1.10;0.70;;;12.70;99.90;;;;;;4955753;29;20215;-72
2023/05/24 07:17:18;;;;;;;0.90;0.60;;;12.90;99.90;;;;;;4952723;29;20649;-73
2023/05/24 07:19:46;;;;;;;0.98;0.55;;;13.10;99.90;;;;;;4951588;29;20204;-74
2023/05/24 07:22:14;;;;;;;0.60;0.50;;;13.20;99.90;;;;;;4955986;29;20464;-72
2023/05/24 07:24:42;;;;;;;1.05;0.95;;;13.20;99.90;;;;;;4955940;29;20207;-73
2023/05/24 07:27:10;;;;;;;0.60;0.40;;;13.20;99.90;;;;;;4955608;28;20215;-72
2023/05/24 07:29:40;;;;;;;0.60;0.50;;;13.20;99.90;;;;;;4955866;29;20252;-73
2023/05/24 07:32:07;;;;;;;0.70;0.68;;;13.40;99.90;;;;;;4956222;29;20262;-73
2023/05/24 07:34:38;;;;;;;1.00;0.77;;;13.40;99.90;;;;;;4955348;29;20223;-73
2023/05/24 07:37:06;;;;;;;0.70;0.65;;;13.50;99.90;;;;;;4955896;29;20213;-73
2023/05/24 07:39:34;;;;;;;0.68;0.50;;;13.50;99.90;;;;;;4955685;29;20207;-73
2023/05/24 07:42:02;;;;;;;0.73;0.55;;;13.40;99.90;;;;;;4955619;29;20216;-73
2023/05/24 07:44:29;;;;;;;0.90;0.50;;;13.50;99.90;;;;;;4955495;29;20689;-73
2023/05/24 07:47:01;;;;;;;0.60;0.40;;;13.50;99.90;;;;;;4954961;29;20741;-73
2023/05/24 07:49:29;;;;;;;0.75;0.50;;;13.50;99.90;;;;;;4948452;29;20648;-73
2023/05/24 07:51:58;;;;;;;0.98;0.50;;;13.70;99.90;;;;;;4955170;29;20237;-72
2023/05/24 07:54:26;;;;;;;2.13;0.98;;;13.80;99.90;;;;;;4955268;29;20204;-72
2023/05/24 07:56:54;;;;;;;0.60;0.50;;;13.90;99.90;;;;;;4955501;29;20207;-72
2023/05/24 07:59:22;;;;;;;1.10;0.63;;;13.80;99.90;;;;;;4947635;29;20235;-73
2023/05/24 08:01:51;;;;;;;1.88;0.88;;;13.90;99.90;;;;;;4954921;29;20211;-73
2023/05/24 08:04:20;;;;;;;0.70;0.50;;;13.90;99.90;;;;;;4954915;29;20291;-72
2023/05/24 08:06:48;;;;;;;2.78;0.68;;;14.10;99.90;;;;;;4955473;29;20214;-72
2023/05/24 08:09:16;;;;;;;0.73;0.73;;;14.40;99.90;;;;;;4954636;28;20238;-73
2023/05/24 08:11:44;;;;;;;0.70;0.70;;;14.60;99.90;;;;;;4955011;29;20682;-73
2023/05/24 08:14:12;;;;;;;1.00;0.68;;;14.50;99.90;;;;;;4954714;29;20620;-72
2023/05/24 08:16:40;;;;;;;0.70;0.60;;;14.50;99.90;;;;;;4953374;28;20699;-74
2023/05/24 08:19:08;;;;;;;0.60;0.40;;;14.50;99.90;;;;;;4948342;29;20231;-72
2023/05/24 08:21:37;;;;;;;0.80;0.70;;;14.50;99.90;;;;;;4934543;29;20252;-73
2023/05/24 08:24:05;;;;;;;0.60;0.57;;;14.20;99.90;;;;;;4944593;29;20208;-73
2023/05/24 08:26:36;;;;;;;0.93;0.77;;;13.80;99.90;;;;;;4946764;29;20203;-74
2023/05/24 08:29:04;;;;;;;1.23;1.13;;;13.80;99.90;;;;;;4945486;29;20250;-73
2023/05/24 08:31:33;;;;;;;0.60;0.43;;;13.60;99.90;;;;;;4943247;29;20576;-73
2023/05/24 08:34:01;;;;;;;0.60;0.40;;;13.50;99.90;;;;;;4943959;29;20219;-73
2023/05/24 08:36:29;;;;;;;0.60;0.50;;;13.20;99.90;;;;;;4942249;29;20230;-72
2023/05/24 08:38:59;;;;;;;2.20;1.02;;;13.10;99.90;;;;;;4943275;29;20611;-74
2023/05/24 08:41:28;;;;;;;0.90;0.60;;;12.90;99.90;;;;;;4950092;29;20219;-73
2023/05/24 08:44:01;;;;;;;0.60;0.47;;;12.90;99.90;;;;;;4943420;29;20215;-72
2023/05/24 08:46:29;;;;;;;0.60;0.50;;;12.80;99.90;;;;;;4946633;29;20212;-71
2023/05/24 08:48:58;;;;;;;1.13;0.68;;;12.60;99.90;;;;;;4946227;29;20295;-73
2023/05/24 08:51:27;;;;;;;0.90;0.70;;;12.50;99.90;;;;;;4954124;29;20214;-72
2023/05/24 08:53:59;;;;;;;2.25;0.60;;;12.60;99.90;;;;;;4954479;29;20215;-73
2023/05/24 08:56:28;;;;;;;0.80;0.60;;;12.50;99.90;;;;;;4954683;29;20216;-73
2023/05/24 08:58:56;;;;;;;1.13;0.75;;;12.70;99.90;;;;;;4954209;29;20242;-73
2023/05/24 09:01:24;;;;;;;0.70;0.50;;;13.00;99.90;;;;;;4954272;29;20203;-73
2023/05/24 09:03:57;;;;;;;0.60;0.50;;;13.30;99.90;;;;;;4954012;29;20239;-73
2023/05/24 09:06:25;;;;;;;0.70;0.50;;;13.50;99.90;;;;;;4954166;29;20214;-73
2023/05/24 09:08:54;;;;;;;0.68;0.55;;;13.90;99.90;;;;;;4954261;29;20278;-73
2023/05/24 09:11:25;;;;;;;0.70;0.47;;;14.50;99.90;;;;;;4946054;29;20219;-73
2023/05/24 09:13:55;;;;;;;0.70;0.50;;;14.90;99.90;;;;;;4953717;29;20674;-73
2023/05/24 09:16:23;;;;;;;1.95;0.47;;;15.30;99.90;;;;;;4949663;29;20215;-73
2023/05/24 09:18:51;;;;;;;0.50;0.40;;;15.60;99.90;;;;;;4946180;29;20232;-73
2023/05/24 09:21:20;;;;;;;0.60;0.50;;;15.80;99.90;;;;;;4953422;29;20560;-73
2023/05/24 09:23:49;;;;;;;0.57;0.45;;;16.20;99.90;;;;;;4953866;29;20663;-73
2023/05/24 09:26:17;;;;;;;1.17;0.70;;;16.70;99.90;;;;;;4953684;29;20262;-73
2023/05/24 09:28:47;;;;;;;0.70;0.55;;;16.90;99.90;;;;;;4953716;28;20223;-73
2023/05/24 09:31:15;;;;;;;0.85;0.60;;;16.30;99.90;;;;;;4953352;28;20592;-73
2023/05/24 09:33:43;;;;;;;0.82;0.70;;;16.00;99.90;;;;;;4953286;29;20211;-73
2023/05/24 09:36:11;;;;;;;0.60;0.50;;;15.90;99.90;;;;;;4953314;29;20709;-73
2023/05/24 09:38:39;;;;;;;0.70;0.55;;;16.10;99.90;;;;;;4953472;28;20222;-74
2023/05/24 09:41:09;;;;;;;0.80;0.70;;;16.40;99.90;;;;;;4953457;29;20382;-73
2023/05/24 09:43:49;;;;;;;1.63;0.80;;;16.20;99.90;;;;;;4953030;29;20246;-73
2023/05/24 09:46:18;;;;;;;0.60;0.43;;;16.30;99.90;;;;;;4953479;29;20634;-73
2023/05/24 09:48:56;;;;;;;0.60;0.40;;;16.60;99.90;;;;;;4952517;29;20234;-73
2023/05/24 09:51:24;;;;;;;0.63;0.50;;;16.70;99.90;;;;;;4946131;29;20247;-73
2023/05/24 09:53:57;;;;;;;0.60;0.40;;;17.00;99.90;;;;;;4953200;29;20745;-73
2023/05/24 09:56:25;;;;;;;0.90;0.50;;;17.20;99.90;;;;;;4945859;29;20207;-72
2023/05/24 09:58:55;;;;;;;0.60;0.40;;;17.30;99.90;;;;;;4952963;28;20744;-73
2023/05/24 10:01:25;;;;;;;1.33;0.75;;;17.90;99.90;;;;;;4953343;29;20222;-73
2023/05/24 10:03:53;;;;;;;0.60;0.40;;;18.10;99.90;;;;;;4953581;29;20218;-74
2023/05/24 10:06:22;;;;;;;0.60;0.40;;;17.90;99.90;;;;;;4945150;29;20207;-74
2023/05/24 10:08:53;;;;;;;0.60;0.50;;;17.60;99.90;;;;;;4952379;28;20240;-73
2023/05/24 10:11:21;;;;;;;0.65;0.50;;;18.10;99.90;;;;;;4953072;29;20218;-73
2023/05/24 10:13:49;;;;;;;0.80;0.60;;;18.00;99.80;;;;;;4952569;29;20226;-74
2023/05/24 10:16:19;;;;;;;0.70;0.50;;;18.40;99.90;;;;;;4952757;29;20203;-73
2023/05/24 10:18:47;;;;;;;0.60;0.50;;;18.70;98.80;;;;;;4952901;29;20252;-73
2023/05/24 10:21:15;;;;;;;0.60;0.40;;;19.00;99.80;;;;;;4944715;29;20584;-73
2023/05/24 10:23:49;;;;;;;0.93;0.60;;;19.30;99.50;;;;;;4952540;29;20698;-73
2023/05/24 10:26:19;;;;;;;0.57;0.40;;;19.30;98.20;;;;;;4952944;29;20262;-73
2023/05/24 10:28:51;;;;;;;0.50;0.40;;;19.50;98.90;;;;;;4952921;28;20222;-72
2023/05/24 10:31:25;;;;;;;0.70;0.40;;;19.30;97.80;;;;;;4952691;29;20219;-73
2023/05/24 10:33:58;;;;;;;0.93;0.40;;;18.70;97.40;;;;;;4952447;29;20318;-73
2023/05/24 10:36:46;;;;;;;0.60;0.50;;;19.20;98.30;;;;;;4948335;29;20291;-73
2023/05/24 10:39:14;;;;;;;0.70;0.40;;;19.40;97.70;;;;;;4952877;28;20612;-73
2023/05/24 10:41:42;;;;;;;0.85;0.75;;;19.90;96.90;;;;;;4952781;29;20558;-74
2023/05/24 10:44:12;;;;;;;0.80;0.50;;;19.80;97.10;;;;;;4952885;28;20266;-73
2023/05/24 10:47:09;;;;;;;0.55;0.38;;;20.10;96.50;;;;;;4956332;29;20207;-73
2023/05/24 10:49:39;;;;;;;1.00;0.60;;;20.40;96.10;;;;;;4948719;29;20254;-71
2023/05/24 10:52:12;;;;;;;0.90;0.70;;;20.70;94.20;;;;;;4956340;29;20242;-71
2023/05/24 10:54:40;;;;;;;0.55;0.38;;;20.80;93.90;;;;;;4956370;29;20682;-71
2023/05/24 10:57:29;;;;;;;0.50;0.30;;;20.60;94.60;;;;;;4956606;29;20310;-71
2023/05/24 10:59:57;;;;;;;0.60;0.40;;;20.30;93.90;;;;;;4955999;29;20215;-70
2023/05/24 11:02:35;;;;;;;0.60;0.40;;;20.30;94.10;;;;;;4956354;29;20205;-71
2023/05/24 11:05:05;;;;;;;0.57;0.40;;;20.50;93.30;;;;;;4956390;29;20670;-71
2023/05/24 11:07:41;;;;;;;0.60;0.47;;;20.10;94.20;;;;;;4956544;28;20233;-71
2023/05/24 11:10:15;;;;;;;0.60;0.40;;;19.40;94.30;;;;;;4956265;29;20217;-71
2023/05/24 11:12:43;;;;;;;0.60;0.50;;;19.00;94.80;;;;;;4956006;29;20215;-73
2023/05/24 11:15:12;;;;;;;0.60;0.40;;;18.70;95.90;;;;;;4956105;29;20211;-73
2023/05/24 11:18:14;;;;;;;0.60;0.40;;;18.50;94.40;;;;;;4956094;29;20223;-73
2023/05/24 11:20:45;;;;;;;1.48;0.80;;;18.40;95.80;;;;;;4946429;29;20223;-73
2023/05/24 11:23:15;;;;;;;0.50;0.40;;;19.20;96.70;;;;;;4955922;29;20226;-73
2023/05/24 11:25:44;;;;;;;0.80;0.80;;;19.80;95.50;;;;;;4955976;29;20200;-71
2023/05/24 11:28:13;;;;;;;0.60;0.40;;;20.50;94.70;;;;;;4955738;28;20246;-71
2023/05/24 11:30:41;;;;;;;0.85;0.50;;;20.90;92.60;;;;;;4956190;29;20204;-72
2023/05/24 11:33:17;;;;;;;0.60;0.47;;;21.30;93.40;;;;;;4955635;29;20235;-71
2023/05/24 11:35:47;;;;;;;0.60;0.40;;;21.90;93.00;;;;;;4955918;29;20238;-71
2023/05/24 11:38:16;;;;;;;0.80;0.70;;;22.10;90.70;;;;;;4955694;28;20231;-71
2023/05/24 11:40:46;;;;;;;0.85;0.60;;;22.30;89.90;;;;;;4955630;29;20208;-71
2023/05/24 11:43:15;;;;;;;0.77;0.40;;;21.90;89.80;;;;;;4955381;29;20254;-71
2023/05/24 11:45:47;;;;;;;1.02;0.93;;;21.60;90.40;;;;;;4955732;29;20208;-71
2023/05/24 11:48:15;;;;;;;0.60;0.40;;;21.20;90.50;;;;;;4947380;29;20245;-71
2023/05/24 11:50:47;;;;;;;0.85;0.43;;;20.90;90.00;;;;;;4955485;29;20234;-71
2023/05/24 11:53:19;;;;;;;0.70;0.50;;;20.40;91.60;;;;;;4955193;29;20238;-71
2023/05/24 11:55:47;;;;;;;0.80;0.50;;;19.50;93.10;;;;;;4955199;28;20555;-71
2023/05/24 11:58:24;;;;;;;0.73;0.73;;;19.00;92.60;;;;;;4955359;28;20250;-71
2023/05/24 12:00:52;;;;;;;0.70;0.60;;;18.60;93.00;;;;;;4955647;29;20214;-71
2023/05/24 12:03:20;;;;;;;0.60;0.60;;;18.20;93.00;;;;;;4954986;29;20216;-73
2023/05/24 12:05:51;;;;;;;0.60;0.50;;;17.90;93.20;;;;;;4955438;29;20204;-73
2023/05/24 12:08:19;;;;;;;0.75;0.65;;;18.20;93.60;;;;;;4955340;28;20230;-74
2023/05/24 12:10:50;;;;;;;0.60;0.50;;;18.40;94.10;;;;;;4955007;29;20210;-71
2023/05/24 12:13:22;;;;;;;0.70;0.40;;;18.70;93.10;;;;;;4954680;29;20222;-71
2023/05/24 12:15:51;;;;;;;2.75;0.75;;;18.40;93.80;;;;;;4955272;29;20569;-72
2023/05/24 12:18:24;;;;;;;0.90;0.68;;;18.60;93.20;;;;;;4951960;29;20658;-71
2023/05/24 12:20:54;;;;;;;0.60;0.40;;;18.50;93.90;;;;;;4951237;29;20243;-72
2023/05/24 12:23:25;;;;;;;0.60;0.40;;;18.30;94.00;;;;;;4954922;29;20677;-71
2023/05/24 12:25:58;;;;;;;0.75;0.73;;;18.30;93.20;;;;;;4955051;29;20215;-72
2023/05/24 12:28:26;;;;;;;0.60;0.45;;;17.80;94.00;;;;;;4947521;28;20223;-71
2023/05/24 12:30:54;;;;;;;0.80;0.50;;;17.40;94.40;;;;;;4954639;29;20586;-72
2023/05/24 12:33:24;;;;;;;0.60;0.40;;;17.20;94.80;;;;;;4946690;29;20356;-72
2023/05/24 12:35:55;;;;;;;0.80;0.50;;;16.90;95.40;;;;;;4954997;29;20230;-72
2023/05/24 12:38:24;;;;;;;0.60;0.40;;;16.50;94.90;;;;;;4954689;28;20227;-71
2023/05/24 12:40:53;;;;;;;2.08;0.95;;;16.20;94.70;;;;;;4954693;29;20226;-72
2023/05/24 12:43:40;;;;;;;0.60;0.50;;;16.10;96.60;;;;;;4948785;29;20211;-72
2023/05/24 12:46:08;;;;;;;0.65;0.57;;;16.00;96.30;;;;;;4954256;29;20233;-72
2023/05/24 12:48:36;;;;;;;0.60;0.50;;;16.00;97.00;;;;;;4948911;29;20262;-72
2023/05/24 12:51:07;;;;;;;1.25;0.60;;;16.00;96.70;;;;;;4952120;29;20662;-71
2023/05/24 12:53:35;;;;;;;4.40;1.15;;;16.10;96.60;;;;;;4954129;29;20224;-72
2023/05/24 12:56:03;;;;;;;0.80;0.60;;;16.00;97.60;;;;;;4954346;29;20290;-72
2023/05/24 12:58:31;;;;;;;0.85;0.60;;;16.10;97.60;;;;;;4954375;28;20223;-73
2023/05/24 13:00:59;;;;;;;0.60;0.50;;;16.20;96.70;;;;;;4954274;29;20203;-71